createdAt,value
2022-12-16T00:00:48.316Z,4.50
2022-12-16T00:03:15.910Z,7.50
2022-12-16T00:05:44.646Z,1.50
2022-12-16T00:08:14.278Z,6.00
2022-12-16T00:10:54.999Z,3.50
2022-12-16T00:13:22.766Z,5.50
2022-12-16T00:15:50.350Z,3.50
2022-12-16T00:18:20.160Z,4.00
2022-12-16T00:20:47.737Z,8.75
2022-12-16T00:23:15.700Z,1.00
2022-12-16T00:25:43.255Z,6.75
2022-12-16T00:28:10.891Z,5.50
2022-12-16T00:30:38.431Z,3.75
2022-12-16T00:33:06.011Z,3.75
2022-12-16T00:35:33.649Z,4.75
2022-12-16T00:38:01.182Z,4.50
2022-12-16T00:40:28.791Z,6.25
2022-12-16T00:42:56.866Z,2.00
2022-12-16T00:45:24.420Z,3.75
2022-12-16T00:47:52.443Z,3.75
2022-12-16T00:50:20.487Z,5.75
2022-12-16T00:52:48.034Z,3.00
2022-12-16T00:55:15.602Z,2.25
2022-12-16T00:57:43.206Z,6.25
2022-12-16T01:00:13.053Z,1.00
2022-12-16T01:02:41.620Z,0.75
2022-12-16T01:05:09.390Z,4.50
2022-12-16T01:07:38.678Z,3.50
2022-12-16T01:10:06.493Z,1.50
2022-12-16T01:12:34.504Z,6.25
2022-12-16T01:15:02.049Z,2.00
2022-12-16T01:17:29.621Z,1.00
2022-12-16T01:19:57.749Z,5.00
2022-12-16T01:22:25.291Z,4.50
2022-12-16T01:24:53.510Z,5.50
2022-12-16T01:27:22.940Z,2.00
2022-12-16T01:29:50.839Z,4.00
2022-12-16T01:32:19.667Z,3.00
2022-12-16T01:34:51.044Z,7.25
2022-12-16T01:37:23.225Z,2.50
2022-12-16T01:39:50.856Z,4.50
2022-12-16T01:42:19.330Z,4.50
2022-12-16T01:44:46.878Z,3.50
2022-12-16T01:47:14.459Z,3.00
2022-12-16T01:49:42.373Z,1.00
2022-12-16T01:52:09.924Z,6.25
2022-12-16T01:54:37.517Z,3.50
2022-12-16T01:57:05.041Z,9.00
2022-12-16T01:59:32.593Z,3.25
2022-12-16T02:02:00.844Z,3.75
2022-12-16T02:04:28.749Z,2.50
2022-12-16T02:07:01.141Z,4.00
2022-12-16T02:09:28.738Z,5.50
2022-12-16T02:11:56.270Z,6.00
2022-12-16T02:14:24.181Z,4.25
2022-12-16T02:16:51.872Z,1.50
2022-12-16T02:19:21.245Z,3.50
2022-12-16T02:21:49.184Z,3.00
2022-12-16T02:24:16.758Z,4.75
2022-12-16T02:26:44.652Z,0.00
2022-12-16T02:29:12.606Z,9.00
2022-12-16T02:31:42.828Z,4.50
2022-12-16T02:34:10.379Z,6.00
2022-12-16T02:36:38.000Z,3.00
2022-12-16T02:39:05.899Z,3.75
2022-12-16T02:41:33.418Z,5.50
2022-12-16T02:44:02.419Z,6.75
2022-12-16T02:46:30.193Z,5.50
2022-12-16T02:48:57.708Z,6.00
2022-12-16T02:51:26.020Z,3.25
2022-12-16T02:53:53.583Z,9.50
2022-12-16T02:56:21.119Z,1.00
2022-12-16T02:58:48.653Z,2.75
2022-12-16T03:01:16.354Z,2.00
2022-12-16T03:03:44.506Z,6.00
2022-12-16T03:06:12.227Z,1.50
2022-12-16T03:08:39.840Z,3.00
2022-12-16T03:11:08.269Z,3.00
2022-12-16T03:13:35.850Z,4.50
2022-12-16T03:16:03.779Z,2.00
2022-12-16T03:18:31.290Z,3.50
2022-12-16T03:20:58.873Z,3.00
2022-12-16T03:23:26.939Z,4.25
2022-12-16T03:25:54.558Z,6.25
2022-12-16T03:28:22.503Z,3.00
2022-12-16T03:30:50.165Z,2.75
2022-12-16T03:33:21.834Z,6.25
2022-12-16T03:35:49.409Z,2.00
2022-12-16T03:38:17.001Z,3.25
2022-12-16T03:40:45.017Z,3.00
2022-12-16T03:43:12.567Z,3.75
2022-12-16T03:45:41.900Z,4.00
2022-12-16T03:48:09.591Z,4.50
2022-12-16T03:50:37.203Z,4.00
2022-12-16T03:53:05.721Z,4.00
2022-12-16T03:55:33.852Z,4.50
2022-12-16T03:58:03.942Z,8.50
2022-12-16T04:00:31.573Z,6.25
2022-12-16T04:02:59.395Z,3.75
2022-12-16T04:05:27.605Z,4.00
2022-12-16T04:08:00.232Z,0.50
2022-12-16T04:10:43.367Z,4.00
2022-12-16T04:13:28.645Z,6.00
2022-12-16T04:16:14.121Z,3.25
2022-12-16T04:18:59.457Z,4.50
2022-12-16T04:21:44.301Z,3.50
2022-12-16T04:24:20.979Z,5.00
2022-12-16T04:27:10.496Z,1.00
2022-12-16T04:30:06.616Z,4.50
2022-12-16T04:32:54.460Z,9.50
2022-12-16T04:35:39.371Z,6.00
2022-12-16T04:38:26.129Z,3.25
2022-12-16T04:41:11.245Z,4.00
2022-12-16T04:43:56.401Z,4.50
2022-12-16T04:46:41.438Z,2.50
2022-12-16T04:49:27.167Z,3.00
2022-12-16T04:52:12.309Z,3.00
2022-12-16T04:54:57.335Z,1.00
2022-12-16T04:57:42.415Z,2.75
2022-12-16T05:00:29.375Z,2.00
2022-12-16T05:03:14.560Z,3.00
2022-12-16T05:05:59.657Z,4.00
2022-12-16T05:08:44.626Z,2.50
2022-12-16T05:11:30.383Z,3.50
2022-12-16T05:14:15.493Z,2.50
2022-12-16T05:17:00.397Z,3.00
2022-12-16T05:19:45.534Z,5.00
2022-12-16T05:22:32.307Z,3.00
2022-12-16T05:25:17.264Z,1.75
2022-12-16T05:28:02.275Z,1.50
2022-12-16T05:30:47.210Z,1.50
2022-12-16T05:33:33.563Z,3.00
2022-12-16T05:36:18.952Z,3.75
2022-12-16T05:39:03.975Z,3.00
2022-12-16T05:41:48.996Z,3.75
2022-12-16T05:44:34.512Z,6.50
2022-12-16T05:47:19.976Z,2.50
2022-12-16T05:50:05.145Z,1.50
2022-12-16T05:52:50.287Z,5.25
2022-12-16T05:55:35.775Z,1.00
2022-12-16T05:58:29.416Z,3.50
2022-12-16T06:01:14.347Z,2.00
2022-12-16T06:04:02.708Z,5.50
2022-12-16T06:07:03.379Z,3.75
2022-12-16T06:09:53.186Z,5.00
2022-12-16T06:12:41.238Z,3.75
2022-12-16T06:15:25.568Z,5.75
2022-12-16T06:18:10.918Z,3.00
2022-12-16T06:20:55.989Z,1.00
2022-12-16T06:23:40.961Z,6.50
2022-12-16T06:26:26.162Z,5.00
2022-12-16T06:29:13.122Z,3.33
2022-12-16T06:31:58.392Z,1.00
2022-12-16T06:34:43.305Z,3.75
2022-12-16T06:37:28.359Z,3.75
2022-12-16T06:40:14.350Z,1.50
2022-12-16T06:42:59.599Z,3.00
2022-12-16T06:45:45.226Z,3.25
2022-12-16T06:48:30.642Z,3.25
2022-12-16T06:51:17.612Z,2.75
2022-12-16T06:54:08.448Z,6.00
2022-12-16T06:56:53.434Z,3.75
2022-12-16T06:59:38.709Z,3.50
2022-12-16T07:02:23.623Z,4.00
2022-12-16T07:05:08.990Z,4.00
2022-12-16T07:07:54.001Z,1.00
2022-12-16T07:10:39.045Z,3.00
2022-12-16T07:13:24.415Z,5.75
2022-12-16T07:16:09.771Z,3.00
2022-12-16T07:18:54.604Z,4.25
2022-12-16T07:21:40.119Z,3.25
2022-12-16T07:24:25.777Z,4.00
2022-12-16T07:27:11.222Z,4.00
2022-12-16T07:29:56.258Z,3.25
2022-12-16T07:32:41.274Z,5.00
2022-12-16T07:35:23.521Z,3.00
2022-12-16T07:38:08.417Z,3.00
2022-12-16T07:40:53.485Z,1.00
2022-12-16T07:43:38.417Z,1.50
2022-12-16T07:46:23.800Z,0.75
2022-12-16T07:49:05.316Z,3.25
2022-12-16T07:51:50.270Z,3.50
2022-12-16T07:54:36.086Z,6.75
2022-12-16T07:57:22.435Z,0.00
2022-12-16T08:00:07.724Z,3.75
2022-12-16T08:02:56.287Z,6.00
2022-12-16T08:05:41.406Z,4.50
2022-12-16T08:08:27.223Z,0.75
2022-12-16T08:11:12.238Z,5.50
2022-12-16T08:13:57.194Z,1.50
2022-12-16T08:16:42.555Z,1.00
2022-12-16T08:19:28.168Z,3.00
2022-12-16T08:22:13.237Z,4.00
2022-12-16T08:24:58.312Z,4.50
2022-12-16T08:27:42.812Z,3.00
2022-12-16T08:30:28.590Z,4.00
2022-12-16T08:33:19.185Z,3.00
2022-12-16T08:36:04.795Z,3.75
2022-12-16T08:38:49.829Z,3.75
2022-12-16T08:41:36.057Z,4.00
2022-12-16T08:44:21.232Z,3.75
2022-12-16T08:47:06.664Z,5.00
2022-12-16T08:49:53.636Z,2.50
2022-12-16T08:52:42.351Z,3.75
2022-12-16T08:55:29.860Z,7.25
2022-12-16T08:58:14.988Z,0.50
2022-12-16T09:01:06.219Z,3.50
2022-12-16T09:03:53.208Z,5.50
2022-12-16T09:06:40.627Z,3.25
2022-12-16T09:09:26.451Z,0.50
2022-12-16T09:12:11.748Z,3.75
2022-12-16T09:14:56.723Z,3.00
2022-12-16T09:17:42.069Z,6.00
2022-12-16T09:20:27.190Z,9.00
2022-12-16T09:23:12.366Z,5.00
2022-12-16T09:25:59.017Z,1.00
2022-12-16T09:28:44.111Z,4.00
2022-12-16T09:31:29.368Z,3.00
2022-12-16T09:34:14.605Z,3.50
2022-12-16T09:36:59.658Z,5.50
2022-12-16T09:39:44.710Z,6.00
2022-12-16T09:42:29.820Z,4.00
2022-12-16T09:45:14.789Z,5.75
2022-12-16T09:48:00.498Z,1.00
2022-12-16T09:50:45.609Z,6.25
2022-12-16T09:53:31.119Z,3.50
2022-12-16T09:56:16.801Z,1.80
2022-12-16T09:59:02.352Z,8.60
2022-12-16T10:01:47.716Z,5.60
2022-12-16T10:04:33.165Z,5.60
2022-12-16T10:07:18.505Z,3.80
2022-12-16T10:10:03.554Z,4.80
2022-12-16T10:12:48.698Z,4.60
2022-12-16T10:15:33.807Z,7.00
2022-12-16T10:18:18.914Z,5.20
2022-12-16T10:21:15.724Z,9.80
2022-12-16T10:24:00.940Z,11.80
2022-12-16T10:26:46.094Z,7.00
2022-12-16T10:29:31.488Z,7.60
2022-12-16T10:32:16.548Z,7.00
2022-12-16T10:35:01.983Z,6.00
2022-12-16T10:37:47.105Z,4.00
2022-12-16T10:40:32.318Z,4.40
2022-12-16T10:43:22.196Z,3.40
2022-12-16T10:46:07.915Z,8.60
2022-12-16T10:48:56.473Z,9.00
2022-12-16T10:51:42.446Z,9.80
2022-12-16T10:54:27.727Z,11.60
2022-12-16T10:57:13.138Z,9.40
2022-12-16T10:59:58.160Z,6.00
2022-12-16T11:02:43.456Z,4.00
2022-12-16T11:05:29.484Z,9.40
2022-12-16T11:08:14.656Z,10.00
2022-12-16T11:10:59.769Z,6.60
2022-12-16T11:13:45.282Z,12.20
2022-12-16T11:16:30.973Z,12.00
2022-12-16T11:19:16.506Z,12.00
2022-12-16T11:22:00.704Z,11.20
2022-12-16T11:24:45.845Z,11.40
2022-12-16T11:27:31.135Z,10.00
2022-12-16T11:30:16.447Z,8.60
2022-12-16T11:33:06.923Z,10.80
2022-12-16T11:35:52.304Z,10.20
2022-12-16T11:38:37.647Z,6.40
2022-12-16T11:41:22.966Z,6.80
2022-12-16T11:44:07.836Z,12.80
2022-12-16T11:47:04.671Z,9.40
2022-12-16T11:49:50.118Z,10.40
2022-12-16T11:52:37.683Z,7.00
2022-12-16T11:55:35.962Z,12.20
2022-12-16T11:58:28.449Z,6.40
2022-12-16T12:01:14.184Z,7.00
2022-12-16T12:03:59.238Z,6.80
2022-12-16T12:06:44.821Z,8.60
2022-12-16T12:09:29.985Z,11.20
2022-12-16T12:12:15.088Z,9.40
2022-12-16T12:15:00.310Z,6.20
2022-12-16T12:17:45.249Z,9.40
2022-12-16T12:20:30.472Z,8.60
2022-12-16T12:23:15.850Z,4.40
2022-12-16T12:26:01.329Z,10.40
2022-12-16T12:28:46.302Z,7.00
2022-12-16T12:31:31.688Z,11.20
2022-12-16T12:34:16.969Z,4.00
2022-12-16T12:37:02.541Z,12.80
2022-12-16T12:39:47.578Z,12.00
2022-12-16T12:42:32.864Z,7.00
2022-12-16T12:45:18.122Z,9.00
2022-12-16T12:48:03.341Z,6.40
2022-12-16T12:50:48.482Z,7.40
2022-12-16T12:53:34.454Z,9.80
2022-12-16T12:56:20.105Z,9.00
2022-12-16T12:59:05.832Z,11.60
2022-12-16T13:02:05.723Z,7.00
2022-12-16T13:04:51.115Z,10.40
2022-12-16T13:07:37.012Z,7.00
2022-12-16T13:10:22.227Z,8.20
2022-12-16T13:13:07.451Z,6.20
2022-12-16T13:15:52.657Z,7.00
2022-12-16T13:18:38.151Z,6.00
2022-12-16T13:21:23.497Z,7.00
2022-12-16T13:24:08.643Z,3.80
2022-12-16T13:26:53.834Z,9.80
2022-12-16T13:29:39.247Z,10.20
2022-12-16T13:32:24.743Z,3.60
2022-12-16T13:35:09.869Z,4.00
2022-12-16T13:37:55.216Z,7.00
2022-12-16T13:40:40.929Z,3.20
2022-12-16T13:43:38.616Z,8.60
2022-12-16T13:46:23.648Z,6.00
2022-12-16T13:49:23.358Z,3.00
2022-12-16T13:52:09.254Z,4.00
2022-12-16T13:54:54.566Z,6.00
2022-12-16T13:57:39.710Z,3.40
2022-12-16T14:00:24.797Z,10.80
2022-12-16T14:03:10.357Z,4.80
2022-12-16T14:06:04.837Z,6.20
2022-12-16T14:08:50.656Z,5.20
2022-12-16T14:11:36.657Z,5.80
2022-12-16T14:14:22.804Z,9.80
2022-12-16T14:17:08.044Z,9.20
2022-12-16T14:19:53.069Z,8.60
2022-12-16T14:22:38.188Z,5.20
2022-12-16T14:25:27.871Z,7.00
2022-12-16T14:28:13.984Z,4.40
2022-12-16T14:31:13.824Z,6.20
2022-12-16T14:33:58.869Z,7.40
2022-12-16T14:36:44.726Z,6.00
2022-12-16T14:39:30.030Z,6.60
2022-12-16T14:42:15.087Z,3.00
2022-12-16T14:45:00.259Z,2.60
2022-12-16T14:47:45.652Z,3.00
2022-12-16T14:50:31.015Z,7.40
2022-12-16T14:53:16.222Z,4.80
2022-12-16T14:56:01.253Z,4.80
2022-12-16T14:58:46.679Z,5.60
2022-12-16T15:01:32.268Z,5.60
2022-12-16T15:04:18.125Z,2.60
2022-12-16T15:07:03.308Z,6.80
2022-12-16T15:09:49.187Z,12.00
2022-12-16T15:12:34.745Z,8.60
2022-12-16T15:15:19.739Z,11.60
2022-12-16T15:18:04.879Z,7.80
2022-12-16T15:20:49.874Z,11.40
2022-12-16T15:23:35.395Z,6.80
2022-12-16T15:26:20.519Z,10.00
2022-12-16T15:29:05.851Z,9.00
2022-12-16T15:31:51.170Z,6.00
2022-12-16T15:34:36.940Z,7.00
2022-12-16T15:37:21.868Z,9.00
2022-12-16T15:40:06.937Z,9.80
2022-12-16T15:42:52.304Z,7.60
2022-12-16T15:45:37.559Z,12.80
2022-12-16T15:48:22.545Z,17.00
2022-12-16T15:51:07.653Z,12.00
2022-12-16T15:53:52.867Z,12.80
2022-12-16T15:56:38.384Z,14.00
2022-12-16T15:59:23.318Z,13.40
2022-12-16T16:02:08.693Z,10.80
2022-12-16T16:04:54.461Z,7.40
2022-12-16T16:07:40.097Z,12.80
2022-12-16T16:10:25.497Z,11.60
2022-12-16T16:13:10.565Z,5.00
2022-12-16T16:15:55.954Z,11.20
2022-12-16T16:18:41.415Z,12.80
2022-12-16T16:21:26.566Z,11.40
2022-12-16T16:24:11.875Z,9.00
2022-12-16T16:27:12.174Z,11.20
2022-12-16T16:29:57.587Z,8.60
2022-12-16T16:32:42.865Z,10.40
2022-12-16T16:35:28.170Z,11.60
2022-12-16T16:38:18.202Z,9.40
2022-12-16T16:41:15.993Z,4.60
2022-12-16T16:44:01.352Z,9.60
2022-12-16T16:46:46.568Z,13.60
2022-12-16T16:49:32.444Z,12.60
2022-12-16T16:52:17.942Z,1.00
2022-12-16T16:55:03.189Z,9.00
2022-12-16T16:57:48.568Z,10.40
2022-12-16T17:00:33.958Z,9.00
2022-12-16T17:03:20.138Z,7.00
2022-12-16T17:06:05.319Z,3.20
2022-12-16T17:08:50.582Z,8.60
2022-12-16T17:11:35.935Z,10.80
2022-12-16T17:14:21.020Z,10.00
2022-12-16T17:17:06.043Z,11.20
2022-12-16T17:19:51.071Z,4.60
2022-12-16T17:22:36.535Z,7.80
2022-12-16T17:25:22.142Z,4.00
2022-12-16T17:28:07.220Z,11.80
2022-12-16T17:30:52.698Z,7.20
2022-12-16T17:33:38.411Z,11.00
2022-12-16T17:36:28.524Z,11.80
2022-12-16T17:39:16.780Z,15.80
2022-12-16T17:42:01.834Z,12.40
2022-12-16T17:44:47.138Z,10.40
2022-12-16T17:47:32.509Z,9.60
2022-12-16T17:50:17.518Z,16.40
2022-12-16T17:53:02.828Z,11.40
2022-12-16T17:55:48.181Z,4.00
2022-12-16T17:58:33.678Z,10.80
2022-12-16T18:01:18.997Z,11.20
2022-12-16T18:04:04.660Z,10.00
2022-12-16T18:06:51.829Z,7.00
2022-12-16T18:09:51.650Z,6.00
2022-12-16T18:12:36.540Z,6.20
2022-12-16T18:15:21.956Z,9.00
2022-12-16T18:18:07.853Z,12.20
2022-12-16T18:20:53.302Z,9.60
2022-12-16T18:23:46.886Z,9.40
2022-12-16T18:26:34.524Z,8.00
2022-12-16T18:29:19.419Z,9.00
2022-12-16T18:32:04.784Z,10.00
2022-12-16T18:34:49.725Z,8.60
2022-12-16T18:37:34.982Z,6.60
2022-12-16T18:40:20.703Z,6.80
2022-12-16T18:43:05.920Z,8.60
2022-12-16T18:45:50.354Z,4.80
2022-12-16T18:48:35.534Z,9.80
2022-12-16T18:51:21.030Z,9.00
2022-12-16T18:54:06.336Z,9.00
2022-12-16T18:56:51.457Z,10.80
2022-12-16T18:59:36.542Z,6.00
2022-12-16T19:02:24.314Z,6.40
2022-12-16T19:05:09.648Z,6.80
2022-12-16T19:08:00.400Z,17.00
2022-12-16T19:10:45.484Z,4.00
2022-12-16T19:13:30.994Z,18.75
2022-12-16T19:16:16.347Z,20.50
2022-12-16T19:19:01.400Z,20.00
2022-12-16T19:21:52.149Z,20.00
2022-12-16T19:24:42.203Z,31.75
2022-12-16T19:27:27.703Z,28.25
2022-12-16T19:30:13.066Z,29.00
2022-12-16T19:32:58.546Z,28.00
2022-12-16T19:35:44.399Z,11.75
2022-12-16T19:38:29.749Z,15.75
2022-12-16T19:41:14.765Z,19.25
2022-12-16T19:44:05.402Z,10.00
2022-12-16T19:46:56.702Z,3.00
2022-12-16T19:49:44.510Z,8.50
2022-12-16T19:52:29.749Z,12.25
2022-12-16T19:55:17.524Z,11.00
2022-12-16T19:58:03.322Z,7.50
2022-12-16T20:00:48.518Z,6.25
2022-12-16T20:03:34.263Z,6.00
2022-12-16T20:06:19.763Z,6.75
2022-12-16T20:09:05.274Z,7.75
2022-12-16T20:11:50.807Z,9.75
2022-12-16T20:14:36.820Z,2.00
2022-12-16T20:17:22.021Z,5.50
2022-12-16T20:20:07.401Z,9.75
2022-12-16T20:22:52.748Z,4.50
2022-12-16T20:25:41.265Z,5.50
2022-12-16T20:28:26.423Z,7.00
2022-12-16T20:31:14.015Z,7.50
2022-12-16T20:34:02.961Z,11.00
2022-12-16T20:36:48.278Z,11.00
2022-12-16T20:39:33.516Z,3.00
2022-12-16T20:42:18.954Z,11.00
2022-12-16T20:45:04.357Z,7.50
2022-12-16T20:47:49.598Z,10.00
2022-12-16T20:50:34.544Z,7.50
2022-12-16T20:53:21.630Z,5.50
2022-12-16T20:56:06.805Z,10.25
2022-12-16T20:58:57.268Z,9.00
2022-12-16T21:01:47.938Z,3.50
2022-12-16T21:04:41.906Z,11.00
2022-12-16T21:07:27.225Z,9.25
2022-12-16T21:10:12.324Z,7.25
2022-12-16T21:13:00.705Z,11.50
2022-12-16T21:15:52.496Z,8.25
2022-12-16T21:18:41.265Z,11.75
2022-12-16T21:21:26.501Z,0.75
2022-12-16T21:24:11.877Z,9.25
2022-12-16T21:26:57.950Z,6.75
2022-12-16T21:29:42.994Z,6.00
2022-12-16T21:32:27.966Z,8.00
2022-12-16T21:35:13.352Z,6.00
2022-12-16T21:38:00.103Z,6.00
2022-12-16T21:40:45.246Z,7.25
2022-12-16T21:43:35.741Z,4.50
2022-12-16T21:46:20.971Z,9.75
2022-12-16T21:49:07.152Z,5.75
2022-12-16T21:51:52.607Z,9.00
2022-12-16T21:54:41.849Z,12.75
2022-12-16T21:57:26.901Z,6.75
2022-12-16T22:00:13.836Z,14.50
2022-12-16T22:02:59.413Z,6.50
2022-12-16T22:05:44.621Z,7.00
2022-12-16T22:08:32.175Z,10.00
2022-12-16T22:11:18.204Z,11.50
2022-12-16T22:14:03.522Z,4.50
2022-12-16T22:16:48.461Z,6.00
2022-12-16T22:19:33.663Z,11.25
2022-12-16T22:22:20.749Z,8.00
2022-12-16T22:25:12.563Z,16.50
2022-12-16T22:27:59.662Z,4.00
2022-12-16T22:30:44.907Z,7.25
2022-12-16T22:33:30.215Z,3.00
2022-12-16T22:36:15.220Z,7.00
2022-12-16T22:39:00.046Z,10.25
2022-12-16T22:41:45.106Z,12.50
2022-12-16T22:44:32.661Z,2.50
2022-12-16T22:47:17.948Z,15.75
2022-12-16T22:50:03.092Z,10.00
2022-12-16T22:52:48.154Z,11.00
2022-12-16T22:55:34.380Z,16.50
2022-12-16T22:58:19.468Z,12.50
2022-12-16T23:01:04.465Z,16.50
2022-12-16T23:03:49.591Z,10.25
2022-12-16T23:06:36.659Z,13.25
2022-12-16T23:09:21.754Z,19.25
2022-12-16T23:12:06.863Z,7.50
2022-12-16T23:14:52.016Z,15.00
2022-12-16T23:17:38.015Z,12.50
2022-12-16T23:20:23.483Z,10.50
2022-12-16T23:23:08.435Z,6.50
2022-12-16T23:25:53.898Z,9.50
2022-12-16T23:28:48.375Z,5.00
2022-12-16T23:31:33.467Z,5.75
2022-12-16T23:34:18.445Z,7.50
2022-12-16T23:37:03.397Z,3.25
2022-12-16T23:39:48.927Z,9.75
2022-12-16T23:42:34.245Z,13.00
2022-12-16T23:45:19.228Z,7.50
2022-12-16T23:48:04.220Z,11.00
2022-12-16T23:50:49.345Z,6.75
2022-12-16T23:53:34.568Z,2.50
2022-12-16T23:56:19.764Z,13.50
2022-12-16T23:59:04.892Z,6.75
